Time;durP1;ratioP1;P1;durP2;ratioP2;P2;SDS_P1;SDS_P2;PMS_P1;PMS_P2;Temp;Humidity;BMP_temperature;BMP_pressure;BME280_temperature;BME280_humidity;BME280_pressure;Samples;Min_cycle;Max_cycle;Signal;HPM_P1;HPM_P2
2023/08/25 00:01:48;;;;;;;;;;;;;;;-144.99;nan;52248.34;5010542;28;20057;-69
2023/08/25 00:04:15;;;;;;;;;;;;;;;-144.99;nan;52219.81;5008798;28;19949;-69
2023/08/25 00:06:41;;;;;;;;;;;;;;;-144.99;nan;52232.03;5007886;28;20373;-69
2023/08/25 00:09:09;;;;;;;;;;;;;;;-144.99;nan;52248.34;5010169;28;19950;-68
2023/08/25 00:11:35;;;;;;;;;;;;;;;-144.99;nan;52223.88;5009842;28;19945;-66
2023/08/25 00:14:05;;;;;;;;;;;;;;;-144.99;nan;52252.44;5008938;28;20263;-68
2023/08/25 00:16:33;;;;;;;;;;;;;;;-144.99;nan;52227.97;5008895;28;19941;-71
2023/08/25 00:18:59;;;;;;;;;;;;;;;-144.99;nan;52201.47;5009378;28;19993;-68
2023/08/25 00:21:26;;;;;;;;;;;;;;;-144.99;nan;52225.94;5009958;28;19952;-71
2023/08/25 00:23:52;;;;;;;;;;;;;;;-144.99;nan;52203.50;5010282;28;20382;-68
2023/08/25 00:26:19;;;;;;;;;;;;;;;-144.99;nan;52248.34;5009503;28;20427;-72
2023/08/25 00:28:45;;;;;;;;;;;;;;;-144.99;nan;52221.84;5008459;28;20400;-68
2023/08/25 00:31:12;;;;;;;;;;;;;;;-144.99;nan;52244.28;5009938;28;20280;-69
2023/08/25 00:33:47;;;;;;;;;;;;;;;-144.99;nan;52244.28;5009989;28;20005;-69
2023/08/25 00:36:13;;;;;;;;;;;;;;;-144.99;nan;52215.75;5009521;28;20009;-68
2023/08/25 00:38:40;;;;;;;;;;;;;;;-144.99;nan;52227.97;5007659;28;20037;-69
2023/08/25 00:41:06;;;;;;;;;;;;;;;-144.99;nan;52213.69;5009734;28;20099;-68
2023/08/25 00:43:33;;;;;;;;;;;;;;;-144.99;nan;52232.03;5009443;28;20343;-68
2023/08/25 00:46:00;;;;;;;;;;;;;;;-144.99;nan;52215.75;5009420;28;19967;-66
2023/08/25 00:48:27;;;;;;;;;;;;;;;-144.99;nan;52223.88;5009160;28;19965;-67
2023/08/25 00:50:55;;;;;;;;;;;;;;;-144.99;nan;52223.88;5008563;28;20009;-66
2023/08/25 00:53:22;;;;;;;;;;;;;;;-144.99;nan;52236.13;5009211;28;19977;-66
2023/08/25 00:55:48;;;;;;;;;;;;;;;-144.99;nan;52252.44;5007371;28;20010;-64
2023/08/25 00:58:15;;;;;;;;;;;;;;;-144.99;nan;52244.28;5008884;28;20046;-64
2023/08/25 01:00:44;;;;;;;;;;;;;;;-144.99;nan;52230.00;5006116;28;20057;-65
2023/08/25 01:03:11;;;;;;;;;;;;;;;-144.99;nan;52240.19;5007863;28;19959;-66
2023/08/25 01:05:39;;;;;;;;;;;;;;;-144.99;nan;52236.13;5008713;28;19945;-65
2023/08/25 01:08:07;;;;;;;;;;;;;;;-144.99;nan;52223.88;5009057;28;20173;-66
2023/08/25 01:10:37;;;;;;;;;;;;;;;-144.99;nan;52215.75;5009467;28;20030;-66
2023/08/25 01:13:07;;;;;;;;;;;;;;;-144.99;nan;52223.88;5006596;28;20324;-66
2023/08/25 01:15:35;;;;;;;;;;;;;;;-144.99;nan;52236.13;4999687;28;19991;-66
2023/08/25 01:18:04;;;;;;;;;;;;;;;-144.99;nan;52250.38;5008976;28;20018;-66
2023/08/25 01:20:32;;;;;;;;;;;;;;;-144.99;nan;52227.97;5008689;28;19942;-65
2023/08/25 01:23:03;;;;;;;;;;;;;;;-144.99;nan;52219.81;5007991;28;20014;-67
2023/08/25 01:25:31;;;;;;;;;;;;;;;-144.99;nan;52221.84;5009310;28;20053;-66
2023/08/25 01:27:58;;;;;;;;;;;;;;;-144.99;nan;52260.56;5008797;28;20015;-65
2023/08/25 01:30:25;;;;;;;;;;;;;;;-144.99;nan;52230.00;5009393;28;19957;-65
2023/08/25 01:32:52;;;;;;;;;;;;;;;-144.99;nan;52215.75;5008930;28;20564;-66
2023/08/25 01:35:19;;;;;;;;;;;;;;;-144.99;nan;52232.03;5008096;28;19997;-67
2023/08/25 01:37:51;;;;;;;;;;;;;;;-144.99;nan;52234.09;5009266;28;19950;-67
2023/08/25 01:40:21;;;;;;;;;;;;;;;-144.99;nan;52244.28;5007693;28;20004;-66
2023/08/25 01:42:50;;;;;;;;;;;;;;;-144.99;nan;52244.28;5008567;28;20333;-65
2023/08/25 01:45:18;;;;;;;;;;;;;;;-144.99;nan;52205.53;5007087;28;19946;-63
2023/08/25 01:47:46;;;;;;;;;;;;;;;-144.99;nan;52217.78;5007929;28;19960;-64
2023/08/25 01:50:14;;;;;;;;;;;;;;;-144.99;nan;52262.63;5007459;28;20041;-63
2023/08/25 01:52:41;;;;;;;;;;;;;;;-144.99;nan;52213.69;5008304;28;20028;-64
2023/08/25 01:55:08;;;;;;;;;;;;;;;-144.99;nan;52264.66;5009706;28;20347;-66
2023/08/25 01:57:35;;;;;;;;;;;;;;;-144.99;nan;52230.00;5006809;28;20050;-65
2023/08/25 02:00:04;;;;;;;;;;;;;;;-144.99;nan;52240.19;5007973;28;20039;-64
2023/08/25 02:02:31;;;;;;;;;;;;;;;-144.99;nan;52236.13;5008371;28;20048;-65
2023/08/25 02:04:57;;;;;;;;;;;;;;;-144.99;nan;52252.44;5007537;28;19999;-66
2023/08/25 02:07:24;;;;;;;;;;;;;;;-144.99;nan;52248.34;5006789;28;20309;-70
2023/08/25 02:09:53;;;;;;;;;;;;;;;-144.99;nan;52211.66;5008087;28;20386;-69
2023/08/25 02:12:19;;;;;;;;;;;;;;;-144.99;nan;52219.81;5008005;28;19960;-69
2023/08/25 02:14:46;;;;;;;;;;;;;;;-144.99;nan;52227.97;5008309;28;20045;-68
2023/08/25 02:17:14;;;;;;;;;;;;;;;-144.99;nan;52260.56;5007240;28;20421;-68
2023/08/25 02:19:40;;;;;;;;;;;;;;;-144.99;nan;52215.75;5007124;28;20345;-67
2023/08/25 02:22:07;;;;;;;;;;;;;;;-144.99;nan;52219.81;5008549;28;20432;-68
2023/08/25 02:24:33;;;;;;;;;;;;;;;-144.99;nan;52227.97;5002984;28;19965;-68
2023/08/25 02:27:00;;;;;;;;;;;;;;;-144.99;nan;52252.44;5010353;28;20479;-69
2023/08/25 02:29:26;;;;;;;;;;;;;;;-144.99;nan;52232.03;5009614;28;20079;-69
2023/08/25 02:31:53;;;;;;;;;;;;;;;-144.99;nan;52203.50;5011464;28;20056;-68
2023/08/25 02:34:22;;;;;;;;;;;;;;;-144.99;nan;52207.59;5010928;28;20385;-68
2023/08/25 02:36:48;;;;;;;;;;;;;;;-144.99;nan;52215.75;5010096;28;20007;-68
2023/08/25 02:39:15;;;;;;;;;;;;;;;-144.99;nan;52236.13;5011719;28;20026;-68
2023/08/25 02:41:42;;;;;;;;;;;;;;;-144.99;nan;52242.22;5011476;28;20030;-68
2023/08/25 02:44:08;;;;;;;;;;;;;;;-144.99;nan;52297.25;5010792;28;20239;-69
2023/08/25 02:46:35;;;;;;;;;;;;;;;-144.99;nan;52219.81;5010603;28;20352;-68
2023/08/25 02:49:01;;;;;;;;;;;;;;;-144.99;nan;52236.13;5009055;28;20005;-64
2023/08/25 02:51:29;;;;;;;;;;;;;;;-144.99;nan;52227.97;5011502;28;19972;-67
2023/08/25 02:53:55;;;;;;;;;;;;;;;-144.99;nan;52232.03;5011781;28;19945;-65
2023/08/25 02:56:22;;;;;;;;;;;;;;;-144.99;nan;52256.50;5009340;28;20011;-69
2023/08/25 02:58:48;;;;;;;;;;;;;;;-144.99;nan;52268.72;5010473;28;20059;-68
2023/08/25 03:01:15;;;;;;;;;;;;;;;-144.99;nan;52252.44;5010957;28;19942;-64
2023/08/25 03:03:41;;;;;;;;;;;;;;;-144.99;nan;52264.66;5010275;28;20290;-65
2023/08/25 03:06:08;;;;;;;;;;;;;;;-144.99;nan;52240.19;5010217;28;19951;-66
2023/08/25 03:08:35;;;;;;;;;;;;;;;-144.99;nan;52268.72;5009136;28;20053;-65
2023/08/25 03:11:02;;;;;;;;;;;;;;;-144.99;nan;52268.72;5010348;28;19942;-67
2023/08/25 03:13:29;;;;;;;;;;;;;;;-144.99;nan;52223.88;5010307;28;20076;-64
2023/08/25 03:15:55;;;;;;;;;;;;;;;-144.99;nan;52268.72;5010770;28;20319;-64
2023/08/25 03:18:22;;;;;;;;;;;;;;;-144.99;nan;52254.47;5008541;28;20041;-63
2023/08/25 03:20:50;;;;;;;;;;;;;;;-144.99;nan;52256.50;5010432;28;19970;-65
2023/08/25 03:23:16;;;;;;;;;;;;;;;-144.99;nan;52215.75;5010009;28;20014;-65
2023/08/25 03:25:44;;;;;;;;;;;;;;;-144.99;nan;52211.66;5010599;28;19970;-67
2023/08/25 03:28:11;;;;;;;;;;;;;;;-144.99;nan;52223.88;5008673;28;20010;-67
2023/08/25 03:30:38;;;;;;;;;;;;;;;-144.99;nan;52260.56;5006434;28;19982;-66
2023/08/25 03:33:04;;;;;;;;;;;;;;;-144.99;nan;52248.34;5010252;28;19982;-67
2023/08/25 03:35:33;;;;;;;;;;;;;;;-144.99;nan;52219.81;5009856;28;19958;-65
2023/08/25 03:37:59;;;;;;;;;;;;;;;-144.99;nan;52264.66;5009058;28;19982;-66
2023/08/25 03:40:26;;;;;;;;;;;;;;;-144.99;nan;52236.13;5008429;28;20050;-65
2023/08/25 03:42:54;;;;;;;;;;;;;;;-144.99;nan;52242.22;5010393;28;19965;-65
2023/08/25 03:45:21;;;;;;;;;;;;;;;-144.99;nan;52280.97;5009659;28;20035;-66
2023/08/25 03:47:47;;;;;;;;;;;;;;;-144.99;nan;52248.34;5010058;28;20061;-66
2023/08/25 03:50:14;;;;;;;;;;;;;;;-144.99;nan;52262.63;5007344;28;20045;-67
2023/08/25 03:52:40;;;;;;;;;;;;;;;-144.99;nan;52244.28;5009985;28;19960;-67
2023/08/25 03:55:07;;;;;;;;;;;;;;;-144.99;nan;52236.13;5010572;28;20035;-71
2023/08/25 03:57:33;;;;;;;;;;;;;;;-144.99;nan;52236.13;5007371;28;20409;-69
2023/08/25 04:00:01;;;;;;;;;;;;;;;-144.99;nan;52264.66;5006290;28;20021;-69
2023/08/25 04:02:28;;;;;;;;;;;;;;;-144.99;nan;52262.63;5008164;28;20059;-71
2023/08/25 04:04:54;;;;;;;;;;;;;;;-144.99;nan;52232.03;5009157;28;20403;-65
2023/08/25 04:07:21;;;;;;;;;;;;;;;-144.99;nan;52276.88;5009345;28;19992;-64
2023/08/25 04:09:47;;;;;;;;;;;;;;;-144.99;nan;52283.00;5006354;28;19973;-66
2023/08/25 04:12:13;;;;;;;;;;;;;;;-144.99;nan;52256.50;5007739;28;19963;-65
2023/08/25 04:14:40;;;;;;;;;;;;;;;-144.99;nan;52232.03;5008782;28;20019;-64
2023/08/25 04:17:08;;;;;;;;;;;;;;;-144.99;nan;52240.19;5009249;28;19996;-64
2023/08/25 04:19:34;;;;;;;;;;;;;;;-144.99;nan;52280.97;5007481;28;19945;-64
2023/08/25 04:22:01;;;;;;;;;;;;;;;-144.99;nan;52248.34;5006213;28;20245;-68
2023/08/25 04:24:27;;;;;;;;;;;;;;;-144.99;nan;52260.56;5008560;28;20398;-65
2023/08/25 04:26:54;;;;;;;;;;;;;;;-144.99;nan;52280.97;5009936;28;20360;-67
2023/08/25 04:29:20;;;;;;;;;;;;;;;-144.99;nan;52260.56;5009075;28;20079;-70
2023/08/25 04:31:47;;;;;;;;;;;;;;;-144.99;nan;52207.59;5008633;28;20036;-69
2023/08/25 04:34:14;;;;;;;;;;;;;;;-144.99;nan;52244.28;5006961;28;20378;-70
2023/08/25 04:36:42;;;;;;;;;;;;;;;-144.99;nan;52236.13;5009264;28;20287;-69
2023/08/25 04:39:08;;;;;;;;;;;;;;;-144.99;nan;52240.19;5008119;28;19944;-68
2023/08/25 04:41:36;;;;;;;;;;;;;;;-144.99;nan;52236.13;5007538;28;19989;-69
2023/08/25 04:44:03;;;;;;;;;;;;;;;-144.99;nan;52260.56;5004977;28;19951;-68
2023/08/25 04:46:30;;;;;;;;;;;;;;;-144.99;nan;52246.31;5008102;28;20037;-70
2023/08/25 04:48:56;;;;;;;;;;;;;;;-144.99;nan;52248.34;5008957;28;19957;-69
2023/08/25 04:51:24;;;;;;;;;;;;;;;-144.99;nan;52234.09;5010052;28;20028;-68
2023/08/25 04:53:50;;;;;;;;;;;;;;;-144.99;nan;52256.50;5004006;28;19999;-69
2023/08/25 04:56:17;;;;;;;;;;;;;;;-144.99;nan;52254.47;5018819;22;19999;-70
2023/08/25 04:58:44;;;;;;;;;;;;;;;-144.99;nan;52223.88;4988469;28;20052;-68
2023/08/25 05:01:10;;;;;;;;;;;;;;;-144.99;nan;52266.69;4987860;28;19946;-68
2023/08/25 05:03:37;;;;;;;;;;;;;;;-144.99;nan;52264.66;4988035;28;20018;-73
2023/08/25 05:06:03;;;;;;;;;;;;;;;-144.99;nan;52248.34;4985468;28;20350;-73
2023/08/25 05:08:31;;;;;;;;;;;;;;;-144.99;nan;52227.97;4985300;28;19965;-73
2023/08/25 05:10:58;;;;;;;;;;;;;;;-144.99;nan;52260.56;4988474;28;19991;-73
2023/08/25 05:13:24;;;;;;;;;;;;;;;-144.99;nan;52260.56;4987996;28;20015;-72
2023/08/25 05:15:50;;;;;;;;;;;;;;;-144.99;nan;52236.13;4986784;28;19965;-72
2023/08/25 05:18:17;;;;;;;;;;;;;;;-144.99;nan;52246.31;4988592;28;20031;-71
2023/08/25 05:20:43;;;;;;;;;;;;;;;-144.99;nan;52270.78;4986943;28;19955;-73
2023/08/25 05:23:10;;;;;;;;;;;;;;;-144.99;nan;52256.50;4300181;28;10000788;-72
2023/08/25 05:25:38;;;;;;;;;;;;;;;-144.99;nan;52227.97;4983319;28;19943;-72
2023/08/25 05:28:05;;;;;;;;;;;;;;;-144.99;nan;52248.34;4984784;28;19982;-71
2023/08/25 05:30:31;;;;;;;;;;;;;;;-144.99;nan;52236.13;4986051;28;20084;-71
2023/08/25 05:32:58;;;;;;;;;;;;;;;-144.99;nan;52244.28;4986805;28;20050;-71
2023/08/25 05:35:24;;;;;;;;;;;;;;;-144.99;nan;52252.44;4986380;28;19949;-72
2023/08/25 05:37:51;;;;;;;;;;;;;;;-144.99;nan;52256.50;4985650;28;19956;-71
2023/08/25 05:40:17;;;;;;;;;;;;;;;-144.99;nan;52225.94;4986908;28;20498;-72
2023/08/25 05:42:45;;;;;;;;;;;;;;;-144.99;nan;52232.03;4977189;28;19978;-72
2023/08/25 05:45:12;;;;;;;;;;;;;;;-144.99;nan;52209.63;4985028;28;19947;-72
2023/08/25 05:47:38;;;;;;;;;;;;;;;-144.99;nan;52256.50;4986948;28;20438;-70
2023/08/25 05:50:05;;;;;;;;;;;;;;;-144.99;nan;52234.09;4980408;28;20413;-70
2023/08/25 05:52:32;;;;;;;;;;;;;;;-144.99;nan;52254.47;4983759;28;20048;-69
2023/08/25 05:54:58;;;;;;;;;;;;;;;-144.99;nan;52225.94;4987909;28;20587;-70
2023/08/25 05:57:25;;;;;;;;;;;;;;;-144.99;nan;52232.03;4984157;28;20008;-70
2023/08/25 05:59:52;;;;;;;;;;;;;;;-144.99;nan;52276.88;4982752;28;20607;-70
2023/08/25 06:02:19;;;;;;;;;;;;;;;-144.99;nan;52223.88;4988829;28;20075;-69
2023/08/25 06:04:45;;;;;;;;;;;;;;;-144.99;nan;52211.66;4991494;28;19949;-70
2023/08/25 06:07:12;;;;;;;;;;;;;;;-144.99;nan;52227.97;4990662;28;20085;-71
2023/08/25 06:09:38;;;;;;;;;;;;;;;-144.99;nan;52244.28;4993362;28;19964;-70
2023/08/25 06:12:05;;;;;;;;;;;;;;;-144.99;nan;52223.88;4991434;28;20082;-70
2023/08/25 06:14:32;;;;;;;;;;;;;;;-144.99;nan;52215.75;4987909;28;19984;-69
2023/08/25 06:17:03;;;;;;;;;;;;;;;-144.99;nan;52276.88;4983948;28;20371;-69
2023/08/25 06:19:30;;;;;;;;;;;;;;;-144.99;nan;52215.75;4990527;28;19983;-70
2023/08/25 06:21:57;;;;;;;;;;;;;;;-144.99;nan;52244.28;4990989;28;19967;-71
2023/08/25 06:24:24;;;;;;;;;;;;;;;-144.99;nan;52256.50;4990826;28;20537;-71
2023/08/25 06:26:51;;;;;;;;;;;;;;;-144.99;nan;52215.75;4992240;28;19994;-69
2023/08/25 06:29:18;;;;;;;;;;;;;;;-144.99;nan;52230.00;4987461;28;20006;-69
2023/08/25 06:31:44;;;;;;;;;;;;;;;-144.99;nan;52268.72;4993733;28;19962;-70
2023/08/25 06:34:12;;;;;;;;;;;;;;;-144.99;nan;52289.13;4991983;28;20009;-70
2023/08/25 06:36:38;;;;;;;;;;;;;;;-144.99;nan;52211.66;5005169;28;19945;-70
2023/08/25 06:39:05;;;;;;;;;;;;;;;-144.99;nan;52221.84;5007300;28;19960;-72
2023/08/25 06:41:31;;;;;;;;;;;;;;;-144.99;nan;52230.00;5007387;28;20386;-69
2023/08/25 06:43:59;;;;;;;;;;;;;;;-144.99;nan;52240.19;5008859;28;19969;-69
2023/08/25 06:46:25;;;;;;;;;;;;;;;-144.99;nan;52191.28;5005198;28;20000;-69
2023/08/25 06:48:52;;;;;;;;;;;;;;;-144.99;nan;52248.34;5006440;28;19963;-69
2023/08/25 06:51:19;;;;;;;;;;;;;;;-144.99;nan;52207.59;5002612;28;19945;-69
2023/08/25 06:53:46;;;;;;;;;;;;;;;-144.99;nan;52223.88;5006764;28;20008;-69
2023/08/25 06:56:12;;;;;;;;;;;;;;;-144.99;nan;52203.50;5008183;28;19952;-69
2023/08/25 06:58:39;;;;;;;;;;;;;;;-144.99;nan;52240.19;5008191;28;20455;-70
2023/08/25 07:01:05;;;;;;;;;;;;;;;-144.99;nan;52211.66;5006887;28;19947;-70
2023/08/25 07:03:32;;;;;;;;;;;;;;;-144.99;nan;52225.94;5005816;28;19960;-70
2023/08/25 07:05:59;;;;;;;;;;;;;;;-144.99;nan;52205.53;5002634;28;19946;-69
2023/08/25 07:08:26;;;;;;;;;;;;;;;-144.99;nan;52203.50;5006387;28;20041;-69
2023/08/25 07:10:53;;;;;;;;;;;;;;;-144.99;nan;52199.44;4998446;28;19990;-69
2023/08/25 07:13:19;;;;;;;;;;;;;;;-144.99;nan;52234.09;5005339;28;19964;-69
2023/08/25 07:15:46;;;;;;;;;;;;;;;-144.99;nan;52201.47;4995469;28;19959;-69
2023/08/25 07:18:12;;;;;;;;;;;;;;;-144.99;nan;52183.13;4990460;28;20013;-69
2023/08/25 07:20:39;;;;;;;;;;;;;;;-144.99;nan;52215.75;4991767;28;19988;-69
2023/08/25 07:23:05;;;;;;;;;;;;;;;-144.99;nan;52232.03;4988519;28;19977;-70
2023/08/25 07:25:34;;;;;;;;;;;;;;;-144.99;nan;52203.50;4988910;28;20039;-70
2023/08/25 07:28:00;;;;;;;;;;;;;;;-144.99;nan;52183.13;4994566;28;20126;-70
2023/08/25 07:30:26;;;;;;;;;;;;;;;-144.99;nan;52185.16;4990452;28;20057;-70
2023/08/25 07:32:53;;;;;;;;;;;;;;;-144.99;nan;52227.97;4990403;28;20020;-70
2023/08/25 07:35:19;;;;;;;;;;;;;;;-144.99;nan;52195.34;4981600;28;19993;-70
2023/08/25 07:37:46;;;;;;;;;;;;;;;-144.99;nan;52201.47;4990413;28;19967;-71
2023/08/25 07:40:13;;;;;;;;;;;;;;;-144.99;nan;52238.16;4989934;28;20332;-71
2023/08/25 07:42:43;;;;;;;;;;;;;;;-144.99;nan;52225.94;4990581;28;20060;-70
2023/08/25 07:45:10;;;;;;;;;;;;;;;-144.99;nan;52191.28;4989680;28;20365;-70
2023/08/25 07:47:36;;;;;;;;;;;;;;;-144.99;nan;52252.44;4990103;28;20031;-70
2023/08/25 07:50:04;;;;;;;;;;;;;;;-144.99;nan;52244.28;4988150;28;19967;-71
2023/08/25 07:52:31;;;;;;;;;;;;;;;-144.99;nan;52256.50;4987608;28;19999;-70
2023/08/25 07:54:57;;;;;;;;;;;;;;;-144.99;nan;52250.38;4994106;28;20235;-71
2023/08/25 07:57:23;;;;;;;;;;;;;;;-144.99;nan;52223.88;4985779;28;20019;-71
2023/08/25 07:59:51;;;;;;;;;;;;;;;-144.99;nan;52201.47;4987101;28;19946;-71
2023/08/25 08:02:18;;;;;;;;;;;;;;;-144.99;nan;52248.34;4983287;28;20021;-71
2023/08/25 08:04:44;;;;;;;;;;;;;;;-144.99;nan;52264.66;4989613;28;19971;-68
2023/08/25 08:07:11;;;;;;;;;;;;;;;-144.99;nan;52142.38;4988943;28;20545;-71
2023/08/25 08:09:37;;;;;;;;;;;;;;;-144.99;nan;52203.50;4989059;28;20353;-71
2023/08/25 08:12:04;;;;;;;;;;;;;;;-144.99;nan;52244.28;4989888;28;19971;-71
2023/08/25 08:14:35;;;;;;;;;;;;;;;-144.99;nan;52217.78;4988097;28;20065;-71
2023/08/25 08:17:03;;;;;;;;;;;;;;;-144.99;nan;52197.41;4984736;28;19946;-71
2023/08/25 08:19:30;;;;;;;;;;;;;;;-144.99;nan;52195.34;4988762;28;19949;-71
2023/08/25 08:21:57;;;;;;;;;;;;;;;-144.99;nan;52219.81;4989423;28;20252;-71
2023/08/25 08:24:23;;;;;;;;;;;;;;;-144.99;nan;52252.44;4981037;28;20142;-71
2023/08/25 08:26:50;;;;;;;;;;;;;;;-144.99;nan;52209.63;4993232;28;19953;-71
2023/08/25 08:29:17;;;;;;;;;;;;;;;-144.99;nan;52225.94;4985529;28;20025;-71
2023/08/25 08:31:44;;;;;;;;;;;;;;;-144.99;nan;52187.19;4986933;28;20617;-70
2023/08/25 08:34:12;;;;;;;;;;;;;;;-144.99;nan;52209.63;4987488;28;19947;-71
2023/08/25 08:36:39;;;;;;;;;;;;;;;-144.99;nan;52199.44;4989293;28;20192;-71
2023/08/25 08:39:06;;;;;;;;;;;;;;;-144.99;nan;52234.09;4987960;28;19955;-71
2023/08/25 08:41:33;;;;;;;;;;;;;;;-144.99;nan;52252.44;4990069;28;19944;-71
2023/08/25 08:44:00;;;;;;;;;;;;;;;-144.99;nan;52211.66;4988849;28;19980;-70
2023/08/25 08:46:27;;;;;;;;;;;;;;;-144.99;nan;52199.44;4987329;28;20026;-70
2023/08/25 08:48:54;;;;;;;;;;;;;;;-144.99;nan;52232.03;4983438;28;19951;-71
2023/08/25 08:51:23;;;;;;;;;;;;;;;-144.99;nan;52246.31;4987452;28;20417;-71
2023/08/25 08:53:50;;;;;;;;;;;;;;;-144.99;nan;52211.66;4985708;28;19967;-70
2023/08/25 08:56:17;;;;;;;;;;;;;;;-144.99;nan;52221.84;4984422;28;20269;-70
2023/08/25 08:58:43;;;;;;;;;;;;;;;-144.99;nan;52219.81;4986457;28;19972;-70
2023/08/25 09:01:10;;;;;;;;;;;;;;;-144.99;nan;52240.19;4984896;28;19951;-70
2023/08/25 09:03:38;;;;;;;;;;;;;;;-144.99;nan;52223.88;4987321;28;20435;-71
2023/08/25 09:06:05;;;;;;;;;;;;;;;-144.99;nan;52191.28;4986769;28;19950;-70
2023/08/25 09:08:35;;;;;;;;;;;;;;;-144.99;nan;52236.13;4988753;28;19943;-70
2023/08/25 09:11:03;;;;;;;;;;;;;;;-144.99;nan;52203.50;4983896;28;20533;-70
2023/08/25 09:13:31;;;;;;;;;;;;;;;-144.99;nan;52234.09;4970042;28;19997;-71
2023/08/25 09:15:57;;;;;;;;;;;;;;;-144.99;nan;52244.28;4978106;28;20039;-70
2023/08/25 09:18:25;;;;;;;;;;;;;;;-144.99;nan;52215.75;4982519;28;20030;-71
2023/08/25 09:20:51;;;;;;;;;;;;;;;-144.99;nan;52248.34;4984560;28;20387;-71
2023/08/25 09:23:18;;;;;;;;;;;;;;;-144.99;nan;52215.75;4981630;28;20011;-70
2023/08/25 09:25:45;;;;;;;;;;;;;;;-144.99;nan;52219.81;4985931;28;20000;-71
2023/08/25 09:28:12;;;;;;;;;;;;;;;-144.99;nan;52232.03;4985800;28;20297;-70
2023/08/25 09:30:40;;;;;;;;;;;;;;;-144.99;nan;52215.75;4983719;28;19966;-71
2023/08/25 09:33:07;;;;;;;;;;;;;;;-144.99;nan;52236.13;4984754;28;19968;-71
2023/08/25 09:35:34;;;;;;;;;;;;;;;-144.99;nan;52191.28;4983006;28;20348;-70
2023/08/25 09:38:00;;;;;;;;;;;;;;;-144.99;nan;52183.13;4989207;28;20493;-71
2023/08/25 09:40:27;;;;;;;;;;;;;;;-144.99;nan;52203.50;4986932;28;19955;-71
2023/08/25 09:42:58;;;;;;;;;;;;;;;-144.99;nan;52197.41;4989788;28;19973;-71
2023/08/25 09:45:27;;;;;;;;;;;;;;;-144.99;nan;52227.97;4971243;28;19952;-71
2023/08/25 09:47:54;;;;;;;;;;;;;;;-144.99;nan;52195.34;4990550;28;20029;-71
2023/08/25 09:50:20;;;;;;;;;;;;;;;-144.99;nan;52223.88;4986393;28;20056;-71
2023/08/25 09:52:48;;;;;;;;;;;;;;;-144.99;nan;52174.97;4989950;28;20012;-71
2023/08/25 09:55:15;;;;;;;;;;;;;;;-144.99;nan;52179.06;4991194;28;20052;-71
2023/08/25 09:57:45;;;;;;;;;;;;;;;-144.99;nan;52177.00;4972718;28;20462;-71
2023/08/25 10:00:14;;;;;;;;;;;;;;;-144.99;nan;52219.81;4988734;28;20197;-71
2023/08/25 10:02:40;;;;;;;;;;;;;;;-144.99;nan;52242.22;4986404;28;19965;-71
2023/08/25 10:05:09;;;;;;;;;;;;;;;-144.99;nan;52211.66;4987334;28;20067;-71
2023/08/25 10:07:36;;;;;;;;;;;;;;;-144.99;nan;52189.25;4989144;28;20172;-71
2023/08/25 10:10:03;;;;;;;;;;;;;;;-144.99;nan;52219.81;4989701;28;20333;-71
2023/08/25 10:12:30;;;;;;;;;;;;;;;-144.99;nan;52191.28;4985775;28;19971;-71
2023/08/25 10:14:57;;;;;;;;;;;;;;;-144.99;nan;52199.44;4987453;28;20451;-71
2023/08/25 10:17:26;;;;;;;;;;;;;;;-144.99;nan;52179.06;4988645;28;19947;-72
2023/08/25 10:19:55;;;;;;;;;;;;;;;-144.99;nan;52232.03;4989180;28;20031;-71
2023/08/25 10:22:22;;;;;;;;;;;;;;;-144.99;nan;52203.50;4988660;28;20052;-71
2023/08/25 10:24:49;;;;;;;;;;;;;;;-144.99;nan;52199.44;4970205;28;19987;-71
2023/08/25 10:27:16;;;;;;;;;;;;;;;-144.99;nan;52193.31;4988847;28;20375;-71
2023/08/25 10:29:42;;;;;;;;;;;;;;;-144.99;nan;52248.34;4987312;28;20074;-71
2023/08/25 10:32:10;;;;;;;;;;;;;;;-144.99;nan;52211.66;4988085;28;20091;-71
2023/08/25 10:34:41;;;;;;;;;;;;;;;-144.99;nan;52227.97;4987501;28;19986;-71
2023/08/25 10:37:10;;;;;;;;;;;;;;;-144.99;nan;52246.31;4989792;28;20040;-71
2023/08/25 10:39:46;;;;;;;;;;;;;;;-144.99;nan;52240.19;4990022;28;19948;-71
2023/08/25 10:42:12;;;;;;;;;;;;;;;-144.99;nan;52219.81;4989592;28;20446;-70
2023/08/25 10:44:39;;;;;;;;;;;;;;;-144.99;nan;52213.69;4987553;28;19991;-71
2023/08/25 10:47:06;;;;;;;;;;;;;;;-144.99;nan;52199.44;4986288;28;20048;-71
2023/08/25 10:49:39;;;;;;;;;;;;;;;-144.99;nan;52207.59;4985909;28;19975;-71
2023/08/25 10:52:12;;;;;;;;;;;;;;;-144.99;nan;52238.16;4989640;28;19972;-72
2023/08/25 10:54:40;;;;;;;;;;;;;;;-144.99;nan;52219.81;4993938;28;19947;-72
2023/08/25 10:57:18;;;;;;;;;;;;;;;-144.99;nan;52248.34;4984885;28;20219;-71
2023/08/25 10:59:46;;;;;;;;;;;;;;;-144.99;nan;52227.97;4969428;28;19994;-72
2023/08/25 11:02:33;;;;;;;;;;;;;;;-144.99;nan;52240.19;4986457;28;20000;-71
2023/08/25 11:05:14;;;;;;;;;;;;;;;-144.99;nan;52215.75;4989257;28;19945;-71
2023/08/25 11:07:45;;;;;;;;;;;;;;;-144.99;nan;52223.88;4985595;28;20031;-71
2023/08/25 11:10:12;;;;;;;;;;;;;;;-144.99;nan;52227.97;4986461;28;20449;-71
2023/08/25 11:12:39;;;;;;;;;;;;;;;-144.99;nan;52236.13;4989263;28;20563;-70
2023/08/25 11:15:08;;;;;;;;;;;;;;;-144.99;nan;52223.88;4987665;28;19995;-71
2023/08/25 11:17:35;;;;;;;;;;;;;;;-144.99;nan;52203.50;4983777;28;19976;-71
2023/08/25 11:20:02;;;;;;;;;;;;;;;-144.99;nan;52207.59;4984003;28;20021;-70
2023/08/25 11:22:29;;;;;;;;;;;;;;;-144.99;nan;52236.13;4986006;28;20444;-70
2023/08/25 11:24:57;;;;;;;;;;;;;;;-144.99;nan;52236.13;4986043;28;19980;-73
2023/08/25 11:27:24;;;;;;;;;;;;;;;-144.99;nan;52199.44;4990576;28;20048;-71
2023/08/25 11:29:50;;;;;;;;;;;;;;;-144.99;nan;52227.97;4987807;28;19954;-70
2023/08/25 11:32:17;;;;;;;;;;;;;;;-144.99;nan;52211.66;4986436;28;20026;-71
2023/08/25 11:34:47;;;;;;;;;;;;;;;-144.99;nan;52211.66;4988218;28;19951;-71
2023/08/25 11:37:14;;;;;;;;;;;;;;;-144.99;nan;52232.03;4988017;28;19970;-71
2023/08/25 11:39:44;;;;;;;;;;;;;;;-144.99;nan;52227.97;4983651;28;19958;-71
2023/08/25 11:42:12;;;;;;;;;;;;;;;-144.99;nan;52293.19;4969058;28;19963;-71
2023/08/25 11:44:40;;;;;;;;;;;;;;;-144.99;nan;52234.09;4987284;28;19949;-71
2023/08/25 11:47:06;;;;;;;;;;;;;;;-144.99;nan;52254.47;4988431;28;19994;-71
2023/08/25 11:49:33;;;;;;;;;;;;;;;-144.99;nan;52242.22;4980032;28;20296;-71
2023/08/25 11:52:00;;;;;;;;;;;;;;;-144.99;nan;52264.66;4987367;28;19963;-71
2023/08/25 11:54:26;;;;;;;;;;;;;;;-144.99;nan;52227.97;4986442;28;19958;-71
2023/08/25 11:56:53;;;;;;;;;;;;;;;-144.99;nan;52260.56;4989051;28;19957;-71
2023/08/25 11:59:21;;;;;;;;;;;;;;;-144.99;nan;52252.44;4985407;28;19981;-71
2023/08/25 12:01:49;;;;;;;;;;;;;;;-144.99;nan;52223.88;4988045;28;20021;-71
2023/08/25 12:04:23;;;;;;;;;;;;;;;-144.99;nan;52248.34;4990687;28;20031;-71
2023/08/25 12:06:53;;;;;;;;;;;;;;;-144.99;nan;52225.94;4990704;28;19946;-71
2023/08/25 12:09:22;;;;;;;;;;;;;;;-144.99;nan;52244.28;4989769;28;20050;-71
2023/08/25 12:11:48;;;;;;;;;;;;;;;-144.99;nan;52205.53;4986578;28;20042;-71
2023/08/25 12:14:25;;;;;;;;;;;;;;;-144.99;nan;52236.13;4988776;28;20047;-71
2023/08/25 12:16:51;;;;;;;;;;;;;;;-144.99;nan;52272.81;4985730;28;19941;-71
2023/08/25 12:19:18;;;;;;;;;;;;;;;-144.99;nan;52280.97;4995933;28;20302;-71
2023/08/25 12:21:56;;;;;;;;;;;;;;;-144.99;100.00;52244.28;5138911;27;19972;-72
2023/08/25 12:24:22;;;;;;;;;;;;;;;-144.99;100.00;52256.50;5115284;27;19967;-70
2023/08/25 12:26:49;;;;;;;;;;;;;;;-144.99;100.00;52252.44;5115754;27;19946;-70
2023/08/25 12:29:16;;;;;;;;;;;;;;;-144.99;100.00;52256.50;5110312;28;19999;-71
2023/08/25 12:31:42;;;;;;;;;;;;;;;-144.99;100.00;52264.66;5120483;27;19948;-71
2023/08/25 12:34:09;;;;;;;;;;;;;;;-144.99;100.00;52272.81;5119132;27;20048;-71
2023/08/25 12:36:36;;;;;;;;;;;;;;;-144.99;100.00;52285.03;5113077;28;19951;-71
2023/08/25 12:39:05;;;;;;;;;;;;;;;-144.99;100.00;52268.72;5118184;28;20580;-71
2023/08/25 12:41:31;;;;;;;;;;;;;;;-144.99;100.00;52260.56;5109384;28;20051;-71
2023/08/25 12:43:58;;;;;;;;;;;;;;;-144.99;100.00;52236.13;5117789;27;19952;-71
2023/08/25 12:46:25;;;;;;;;;;;;;;;-144.99;100.00;52262.63;5117648;28;19945;-71